Albany, Texas
Current Conditions -  °F | °C
As of 3:55 PM on Thursday 23 Oct 2014 (Local Time) from KBKD Reporting Station
Haze Haze  
Wind Chill: 84°   Ceiling: Unl
Heat Index: 84°   Visibility: 5mi
Dew Point: 56°   Wind: 6mph
Humidity: 39%   Direction: 210°SSW
Pressure: 30.05"   Gusts: NA
Location:  32.72°N, 99.3°W
Report Text: KBKD 232055Z AUTO 21005KT 5SM HZ SCT050 29/14 A3005 RMK AO2 T02880135
Loading
Personal Weather Stations






























Interactive Weather Map
Tropical Storm Tracking
New forecast layout! Learn more

10-Day Weather Forecast

Advertisements
Track Severe Weather on mobile